Time;durP1;ratioP1;P1;durP2;ratioP2;P2;SDS_P1;SDS_P2;PMS_P1;PMS_P2;Temp;Humidity;BMP_temperature;BMP_pressure;BME280_temperature;BME280_humidity;BME280_pressure;Samples;Min_cycle;Max_cycle;Signal;HPM_P1;HPM_P2
2022/05/31 00:01:58;;;;;;;3.40;2.30;;;11.90;74.00;;;10.61;75.84;95682.63;5010717;28;20050;-68
2022/05/31 00:04:25;;;;;;;3.38;2.17;;;11.80;74.20;;;10.58;77.18;95683.00;5021509;28;20555;-69
2022/05/31 00:06:51;;;;;;;3.05;2.28;;;11.80;74.40;;;10.55;76.24;95678.16;5007586;28;20033;-70
2022/05/31 00:09:17;;;;;;;4.43;2.58;;;11.70;74.50;;;10.55;76.55;95678.16;4999115;28;20037;-70
2022/05/31 00:11:43;;;;;;;3.88;2.53;;;11.70;74.30;;;10.52;75.59;95668.84;4984571;28;20056;-70
2022/05/31 00:14:10;;;;;;;3.15;2.42;;;11.70;74.40;;;10.50;77.46;95670.06;4986941;28;20038;-69
2022/05/31 00:16:36;;;;;;;4.70;2.45;;;11.70;74.30;;;10.48;75.88;95661.56;4979857;28;20034;-69
2022/05/31 00:19:03;;;;;;;3.03;2.40;;;11.80;74.40;;;10.46;76.71;95666.22;5013437;28;20041;-69
2022/05/31 00:21:39;;;;;;;3.55;2.47;;;11.70;74.30;;;10.41;78.92;95665.00;5006513;28;20038;-69
2022/05/31 00:24:07;;;;;;;2.97;2.30;;;11.60;74.50;;;10.38;78.07;95670.63;4981283;28;20371;-69
2022/05/31 00:26:33;;;;;;;4.97;2.40;;;11.60;74.70;;;10.35;77.41;95670.22;5000228;28;20557;-69
2022/05/31 00:28:59;;;;;;;4.55;2.63;;;11.60;74.60;;;10.31;77.39;95672.44;5020075;28;20128;-69
2022/05/31 00:31:25;;;;;;;3.75;2.47;;;11.50;74.90;;;10.28;77.69;95664.94;5021505;28;20040;-69
2022/05/31 00:33:51;;;;;;;3.45;2.38;;;11.50;75.20;;;10.27;77.42;95665.94;5001926;28;20034;-69
2022/05/31 00:36:17;;;;;;;3.85;2.47;;;11.50;75.20;;;10.26;78.01;95664.31;5005928;28;20041;-69
2022/05/31 00:38:43;;;;;;;3.60;2.40;;;11.50;75.20;;;10.22;77.06;95673.63;5006142;28;20099;-69
2022/05/31 00:41:26;;;;;;;3.40;2.35;;;11.50;75.00;;;10.20;78.67;95659.84;4992206;28;20575;-69
2022/05/31 00:44:00;;;;;;;3.58;2.33;;;11.40;74.80;;;10.15;79.21;95662.22;5002533;28;20522;-69
2022/05/31 00:46:49;;;;;;;4.15;2.38;;;11.40;75.10;;;10.16;80.13;95665.66;4999914;28;20034;-69
2022/05/31 00:49:36;;;;;;;4.43;2.65;;;11.50;75.30;;;10.15;79.38;95672.72;4991919;28;20075;-73
2022/05/31 00:52:18;;;;;;;3.65;2.38;;;11.50;75.40;;;10.12;79.18;95670.50;4999683;28;20084;-69
2022/05/31 00:54:54;;;;;;;7.20;2.60;;;11.40;75.50;;;10.10;79.86;95667.25;4984294;28;20036;-69
2022/05/31 00:57:20;;;;;;;3.53;2.25;;;11.40;75.40;;;10.07;78.92;95665.03;5003077;28;20049;-69
2022/05/31 00:59:50;;;;;;;3.03;2.20;;;11.40;75.10;;;10.07;79.05;95670.28;4990590;28;20487;-69
2022/05/31 01:02:17;;;;;;;3.80;2.40;;;11.40;75.10;;;10.05;78.44;95667.84;4990982;28;20030;-69
2022/05/31 01:04:53;;;;;;;3.47;2.42;;;11.40;75.30;;;10.04;80.39;95676.75;5006522;28;20446;-69
2022/05/31 01:07:21;;;;;;;4.18;2.15;;;11.40;75.10;;;10.01;78.17;95671.88;4988987;28;20451;-69
2022/05/31 01:09:46;;;;;;;3.45;2.17;;;11.30;74.60;;;9.95;78.64;95671.84;4984992;28;20491;-69
2022/05/31 01:12:12;;;;;;;5.47;2.60;;;11.10;74.10;;;9.89;77.11;95673.44;4962335;28;20418;-69
2022/05/31 01:14:38;;;;;;;4.30;2.55;;;11.10;74.20;;;9.82;78.43;95672.59;4980890;28;20084;-69
2022/05/31 01:17:13;;;;;;;6.05;2.78;;;11.00;74.80;;;9.78;78.82;95671.38;4988333;28;20061;-69
2022/05/31 01:19:59;;;;;;;4.65;3.10;;;11.00;74.90;;;9.73;78.71;95674.59;4977997;28;20125;-69
2022/05/31 01:22:39;;;;;;;3.50;2.53;;;10.90;75.50;;;9.69;79.33;95673.31;4999874;28;20526;-69
2022/05/31 01:25:44;;;;;;;4.22;2.92;;;10.90;75.60;;;9.66;80.47;95662.41;4982384;28;20061;-69
2022/05/31 01:28:44;;;;;;;3.70;2.67;;;10.90;75.80;;;9.64;79.31;95661.78;4991022;28;20034;-69
2022/05/31 01:31:25;;;;;;;3.83;2.42;;;10.90;75.60;;;9.58;80.15;95655.50;5021996;28;20038;-69
2022/05/31 01:34:25;;;;;;;3.95;2.40;;;10.90;75.40;;;9.57;79.98;95663.56;5016402;28;20087;-69
2022/05/31 01:36:53;;;;;;;3.10;2.63;;;10.80;75.60;;;9.52;79.61;95658.91;5009799;28;20052;-69
2022/05/31 01:39:47;;;;;;;2.90;2.45;;;10.80;75.60;;;9.50;80.97;95653.00;4989512;28;20522;-69
2022/05/31 01:42:30;;;;;;;2.58;2.38;;;10.80;75.70;;;9.49;79.99;95662.72;4994350;28;20531;-69
2022/05/31 01:45:12;;;;;;;4.25;2.60;;;10.80;76.10;;;9.48;80.12;95649.78;4983844;28;20117;-69
2022/05/31 01:47:38;;;;;;;4.75;2.55;;;10.80;75.90;;;9.46;79.41;95646.53;5014757;28;20033;-69
2022/05/31 01:50:06;;;;;;;3.95;2.80;;;10.70;76.20;;;9.46;80.38;95646.53;4976957;28;20049;-69
2022/05/31 01:52:32;;;;;;;3.30;2.63;;;10.80;76.40;;;9.45;80.46;95639.66;4987629;28;20038;-69
2022/05/31 01:54:58;;;;;;;4.18;2.45;;;10.80;76.60;;;9.46;80.49;95643.91;4949966;28;20119;-70
2022/05/31 01:57:23;;;;;;;4.90;2.83;;;10.80;76.70;;;9.46;80.54;95638.66;4968972;28;20050;-69
2022/05/31 01:59:54;;;;;;;3.80;2.78;;;10.80;77.00;;;9.48;81.12;95645.34;5002228;28;20506;-69
2022/05/31 02:02:21;;;;;;;3.55;2.53;;;10.90;77.10;;;9.47;81.11;95638.47;4973251;28;20450;-69
2022/05/31 02:04:47;;;;;;;3.05;2.47;;;10.90;77.00;;;9.49;80.49;95640.88;4991878;28;20026;-69
2022/05/31 02:07:17;;;;;;;4.07;2.70;;;10.90;77.10;;;9.49;81.83;95644.31;4989111;28;20037;-69
2022/05/31 02:09:51;;;;;;;4.10;2.55;;;10.80;77.00;;;9.48;81.39;95653.22;5021734;28;20075;-69
2022/05/31 02:12:18;;;;;;;3.50;2.38;;;10.80;77.00;;;9.48;82.01;95644.53;5012104;28;20033;-69
2022/05/31 02:14:44;;;;;;;4.32;2.42;;;10.80;77.00;;;9.47;80.92;95642.91;4997886;28;20048;-69
2022/05/31 02:17:10;;;;;;;3.38;2.65;;;10.80;77.00;;;9.46;80.87;95644.72;4998240;28;20037;-70
2022/05/31 02:19:36;;;;;;;3.40;2.35;;;10.80;77.00;;;9.47;81.00;95648.97;4969781;28;20038;-69
2022/05/31 02:22:06;;;;;;;26.63;20.85;;;10.80;76.90;;;9.48;82.19;95644.53;4993423;28;20529;-69
2022/05/31 02:24:32;;;;;;;19.73;13.63;;;10.80;77.30;;;9.47;80.58;95650.78;5001888;28;20041;-69
2022/05/31 02:26:58;;;;;;;12.93;10.88;;;10.70;77.30;;;9.47;80.85;95653.41;5004922;28;20038;-69
2022/05/31 02:29:27;;;;;;;10.73;8.32;;;10.80;77.00;;;9.46;81.21;95657.03;5020868;28;20583;-68
2022/05/31 02:31:53;;;;;;;15.43;12.50;;;10.80;76.80;;;9.44;81.64;95653.78;5007278;28;20128;-69
2022/05/31 02:34:29;;;;;;;8.00;4.68;;;10.70;76.70;;;9.43;81.03;95652.97;5002672;28;20510;-69
2022/05/31 02:36:55;;;;;;;3.63;2.88;;;10.70;76.70;;;9.41;80.87;95665.50;5003367;28;20034;-68
2022/05/31 02:39:21;;;;;;;2.90;2.25;;;10.70;76.60;;;9.40;81.80;95666.50;4999477;28;20042;-69
2022/05/31 02:41:47;;;;;;;3.35;2.47;;;10.70;76.60;;;9.38;81.21;95662.44;5024475;28;20037;-69
2022/05/31 02:44:13;;;;;;;3.45;2.28;;;10.70;76.40;;;9.37;81.18;95663.44;4989053;28;20066;-67
2022/05/31 02:46:39;;;;;;;4.13;2.53;;;10.70;76.40;;;9.37;80.26;95672.13;5004839;28;20125;-67
2022/05/31 02:49:06;;;;;;;2.80;2.25;;;10.70;76.10;;;9.32;80.51;95666.66;5007749;28;20038;-68
2022/05/31 02:51:41;;;;;;;3.08;2.10;;;10.60;75.80;;;9.30;80.80;95673.09;5009477;28;20025;-67
2022/05/31 02:54:08;;;;;;;3.33;2.28;;;10.60;76.00;;;9.28;81.05;95675.91;5009463;28;20033;-72
2022/05/31 02:56:36;;;;;;;2.53;2.30;;;10.60;76.10;;;9.25;80.09;95675.47;5002994;28;20375;-69
2022/05/31 02:59:02;;;;;;;2.30;2.08;;;10.60;76.10;;;9.23;81.24;95673.03;5011667;28;20487;-68
2022/05/31 03:01:31;;;;;;;3.60;2.38;;;10.60;76.20;;;9.24;80.90;95673.84;4993164;28;20049;-68
2022/05/31 03:03:57;;;;;;;2.70;2.00;;;10.60;76.00;;;9.20;81.15;95674.22;5002755;28;20416;-67
2022/05/31 03:06:23;;;;;;;2.50;1.90;;;10.50;76.10;;;9.14;80.86;95672.38;5014951;28;20491;-68
2022/05/31 03:08:49;;;;;;;3.30;2.47;;;10.50;76.40;;;9.12;81.28;95671.75;5003465;28;20121;-68
2022/05/31 03:11:40;;;;;;;3.67;2.17;;;10.50;76.50;;;9.11;81.96;95669.31;4984388;28;20099;-67
2022/05/31 03:14:26;;;;;;;;;;;10.40;76.70;;;9.10;83.70;95673.75;5023661;28;20046;-69
2022/05/31 03:17:01;;;;;;;4.88;2.25;;;10.40;77.10;;;9.10;81.77;95679.00;5014496;28;19948;-68
2022/05/31 03:19:30;;;;;;;3.28;2.33;;;10.50;77.20;;;9.10;81.20;95676.38;5004120;28;20037;-67
2022/05/31 03:22:00;;;;;;;2.90;2.13;;;10.50;77.30;;;9.11;81.96;95672.75;5002484;28;20597;-66
2022/05/31 03:24:35;;;;;;;3.55;1.90;;;10.60;77.30;;;9.14;82.69;95677.63;5008077;28;20064;-67
2022/05/31 03:27:02;;;;;;;3.00;2.00;;;10.60;77.00;;;9.13;80.68;95678.63;5004109;28;20034;-70
2022/05/31 03:29:28;;;;;;;2.35;1.98;;;10.60;76.50;;;9.12;81.52;95671.75;4971554;28;20042;-67
2022/05/31 03:31:55;;;;;;;2.33;1.88;;;10.50;76.40;;;9.12;81.55;95674.38;5008888;28;20040;-68
2022/05/31 03:34:22;;;;;;;2.50;2.05;;;10.60;76.20;;;9.11;82.03;95685.88;5015086;28;20128;-66
2022/05/31 03:36:47;;;;;;;2.70;2.17;;;10.60;76.30;;;9.09;81.59;95682.63;4991741;28;20034;-68
2022/05/31 03:39:13;;;;;;;4.43;1.90;;;10.60;76.50;;;9.10;81.33;95689.50;5003161;28;20503;-66
2022/05/31 03:41:39;;;;;;;2.63;1.73;;;10.60;76.50;;;9.12;81.56;95698.00;4991413;28;20495;-68
2022/05/31 03:44:14;;;;;;;2.55;2.03;;;10.60;76.40;;;9.14;82.28;95684.69;5001945;28;20120;-67
2022/05/31 03:46:40;;;;;;;4.75;2.15;;;10.60;76.80;;;9.13;81.79;95686.50;5008204;28;20037;-68
2022/05/31 03:49:06;;;;;;;2.90;1.90;;;10.60;77.10;;;9.16;82.06;95683.47;5005539;28;20030;-67
2022/05/31 03:51:32;;;;;;;3.13;1.85;;;10.60;77.20;;;9.18;83.01;95681.47;4994746;28;20067;-67
2022/05/31 03:53:58;;;;;;;2.30;1.90;;;10.60;77.10;;;9.19;82.83;95683.09;5000594;28;20128;-66
2022/05/31 03:56:24;;;;;;;2.63;1.85;;;10.60;77.30;;;9.23;82.52;95677.47;5005590;28;20113;-66
2022/05/31 03:58:50;;;;;;;2.67;2.25;;;10.60;77.20;;;9.21;82.09;95681.09;4996124;28;20110;-66
2022/05/31 04:01:16;;;;;;;4.55;2.30;;;10.60;77.00;;;9.20;82.87;95687.34;5008455;28;20053;-66
2022/05/31 04:03:42;;;;;;;3.53;2.13;;;10.60;76.80;;;9.24;82.94;95700.09;5009044;28;20418;-66
2022/05/31 04:06:08;;;;;;;3.75;2.22;;;10.70;76.80;;;9.27;82.86;95694.44;5013327;28;20329;-66
2022/05/31 04:08:34;;;;;;;2.35;1.83;;;10.80;76.70;;;9.32;83.01;95681.59;4996527;28;20029;-66
2022/05/31 04:11:01;;;;;;;5.28;1.90;;;10.90;76.80;;;9.39;83.08;95677.19;4980649;28;20036;-66
2022/05/31 04:13:28;;;;;;;3.22;1.77;;;11.10;76.40;;;9.44;82.37;95683.47;5012635;28;20041;-67
2022/05/31 04:16:13;;;;;;;2.08;1.70;;;11.10;76.20;;;9.54;84.51;95680.53;5010887;28;20499;-66
2022/05/31 04:18:41;;;;;;;2.50;2.00;;;11.20;75.90;;;9.60;82.31;95678.94;5000576;28;20400;-66
2022/05/31 04:21:09;;;;;;;3.20;1.70;;;11.30;75.70;;;9.68;83.27;95687.47;4992406;28;20555;-66
2022/05/31 04:26:20;;;;;;;2.38;1.88;;;11.60;75.50;;;9.88;82.19;95695.47;5029206;28;20521;-66
2022/05/31 04:28:47;;;;;;;2.92;2.17;;;11.60;75.30;;;9.98;83.18;95697.75;5012587;28;20047;-66
2022/05/31 04:31:12;;;;;;;3.55;2.20;;;11.70;75.50;;;10.03;83.78;95685.63;5012356;28;20140;-67
2022/05/31 04:33:39;;;;;;;3.65;2.58;;;11.70;75.50;;;10.06;82.28;95681.81;4979905;28;20460;-67
2022/05/31 04:36:15;;;;;;;3.03;2.50;;;11.90;75.40;;;10.18;83.21;95697.81;5028934;28;20037;-67
2022/05/31 04:38:40;;;;;;;3.97;2.60;;;11.90;75.10;;;10.23;83.09;95701.53;5021018;28;20072;-66
2022/05/31 04:41:07;;;;;;;5.05;2.63;;;12.00;75.00;;;10.31;82.95;95703.97;5011909;28;20144;-66
2022/05/31 04:43:33;;;;;;;7.28;2.85;;;12.10;74.90;;;10.35;83.18;95704.38;5011726;28;20038;-67
2022/05/31 04:46:21;;;;;;;3.45;2.65;;;12.10;74.90;;;10.40;83.76;95701.97;5027427;28;20037;-67
2022/05/31 04:48:46;;;;;;;5.25;3.08;;;12.10;74.60;;;10.41;82.58;95699.16;5022114;28;20175;-67
2022/05/31 04:51:13;;;;;;;5.20;2.92;;;12.10;74.50;;;10.48;82.58;95701.00;5007385;28;20077;-67
2022/05/31 04:53:40;;;;;;;4.53;2.42;;;12.20;74.80;;;10.55;82.21;95707.09;5011456;28;20128;-67
2022/05/31 04:56:08;;;;;;;4.18;2.53;;;12.30;74.60;;;10.63;82.63;95706.88;5012798;28;20112;-67
2022/05/31 04:58:34;;;;;;;3.38;2.38;;;12.40;74.20;;;10.69;82.72;95704.31;5011746;28;20529;-67
2022/05/31 05:01:01;;;;;;;3.90;2.78;;;12.50;74.00;;;10.73;82.11;95708.16;5012003;28;20132;-67
2022/05/31 05:03:29;;;;;;;4.50;2.63;;;12.50;73.70;;;10.79;81.67;95706.53;5011777;28;20037;-67
2022/05/31 05:05:59;;;;;;;5.40;3.20;;;12.60;73.80;;;10.85;81.19;95711.00;5011245;28;20555;-67
2022/05/31 05:08:25;;;;;;;3.25;2.95;;;12.60;73.50;;;10.86;80.95;95704.72;5028006;28;20398;-67
2022/05/31 05:10:51;;;;;;;4.38;3.25;;;12.60;73.50;;;10.85;81.80;95705.72;4995645;28;20116;-67
2022/05/31 05:13:19;;;;;;;5.45;3.60;;;12.50;73.90;;;10.83;81.25;95699.84;5010156;28;20029;-68
2022/05/31 05:15:44;;;;;;;4.93;3.40;;;12.40;74.00;;;10.83;81.24;95696.41;5011908;28;20125;-67
2022/05/31 05:18:10;;;;;;;6.88;3.20;;;12.40;74.30;;;10.85;81.48;95694.38;5009687;28;20129;-67
2022/05/31 05:20:40;;;;;;;4.57;3.50;;;12.50;75.10;;;10.86;82.53;95681.03;5011368;28;20376;-68
2022/05/31 05:23:06;;;;;;;6.13;3.40;;;12.50;74.80;;;10.86;81.43;95683.66;5011777;28;20021;-67
2022/05/31 05:25:33;;;;;;;4.72;3.00;;;12.50;75.00;;;10.89;82.88;95688.56;4994388;28;20179;-67
2022/05/31 05:27:59;;;;;;;4.57;3.40;;;12.60;75.30;;;10.92;82.31;95690.78;5020854;28;20030;-67
2022/05/31 05:30:40;;;;;;;4.43;2.90;;;12.60;74.90;;;10.93;81.34;95699.47;5025893;28;20121;-67
2022/05/31 05:33:06;;;;;;;4.00;3.13;;;12.60;74.00;;;10.94;82.86;95699.28;4999439;28;20030;-67
2022/05/31 05:35:33;;;;;;;5.63;3.50;;;12.60;74.50;;;11.00;82.74;95693.19;5010716;28;20087;-67
2022/05/31 05:38:01;;;;;;;3.90;3.10;;;12.80;75.20;;;11.07;82.81;95697.66;5027125;28;20049;-67
2022/05/31 05:40:27;;;;;;;4.03;2.90;;;12.90;75.00;;;11.15;83.29;95690.38;5008208;28;20507;-68
2022/05/31 05:42:53;;;;;;;4.57;2.70;;;13.00;74.70;;;11.28;83.29;95697.47;4983527;28;20030;-66
2022/05/31 05:45:19;;;;;;;2.75;2.42;;;13.20;74.30;;;11.40;82.54;95702.94;4996934;28;20057;-68
2022/05/31 05:47:45;;;;;;;3.00;2.70;;;13.30;72.90;;;11.55;81.82;95703.53;5000009;28;20029;-68
2022/05/31 05:50:11;;;;;;;3.40;2.67;;;13.50;72.60;;;11.71;80.96;95712.81;4991080;28;20026;-66
2022/05/31 05:52:38;;;;;;;4.20;2.30;;;13.70;71.30;;;11.87;80.31;95704.53;5014735;28;20098;-66
2022/05/31 05:55:05;;;;;;;3.08;2.17;;;13.90;70.70;;;12.03;80.46;95698.81;5011076;28;20091;-66
2022/05/31 05:57:30;;;;;;;3.95;2.58;;;14.10;69.80;;;12.22;79.52;95691.81;4990719;28;20105;-66
2022/05/31 05:59:56;;;;;;;6.47;2.72;;;14.30;69.00;;;12.42;79.08;95697.84;5008155;28;20070;-66
2022/05/31 06:02:31;;;;;;;6.47;2.55;;;14.60;68.40;;;12.64;77.41;95689.59;5008478;28;20113;-66
2022/05/31 06:05:28;;;;;;;3.83;2.13;;;14.60;67.60;;;12.85;74.86;95700.66;4988548;28;20030;-66
2022/05/31 06:08:10;;;;;;;2.17;1.85;;;14.80;65.00;;;13.03;74.51;95707.03;4979553;28;20030;-66
2022/05/31 06:10:39;;;;;;;4.43;2.00;;;15.00;65.20;;;13.20;75.11;95712.66;5010887;28;20061;-67
2022/05/31 06:13:16;;;;;;;3.75;1.95;;;15.30;64.30;;;13.43;73.91;95711.03;4995187;28;20078;-67
2022/05/31 06:15:46;;;;;;;3.55;2.17;;;15.60;63.90;;;13.70;72.80;95710.81;5025064;28;20044;-66
2022/05/31 06:18:16;;;;;;;2.88;1.77;;;16.10;62.60;;;14.03;72.91;95713.09;5000436;28;20459;-67
2022/05/31 06:20:45;;;;;;;2.63;1.63;;;16.50;61.10;;;14.28;72.26;95718.34;4990909;28;20109;-67
2022/05/31 06:23:10;;;;;;;3.92;1.65;;;16.50;60.70;;;14.37;71.85;95711.72;4976500;28;20074;-67
2022/05/31 06:25:38;;;;;;;3.20;1.77;;;16.30;60.70;;;14.37;70.83;95701.13;4990711;28;20687;-66
2022/05/31 06:28:06;;;;;;;2.58;1.77;;;16.10;60.50;;;14.31;70.18;95702.03;5010946;28;20361;-66
2022/05/31 06:30:32;;;;;;;3.97;1.73;;;16.10;60.80;;;14.34;70.22;95701.59;5010813;28;20171;-66
2022/05/31 06:32:57;;;;;;;2.80;1.73;;;16.50;59.80;;;14.39;69.41;95699.06;4999020;28;20061;-67
2022/05/31 06:35:24;;;;;;;3.88;2.03;;;16.60;59.90;;;14.56;69.12;95707.25;5006957;28;20060;-67
2022/05/31 06:37:50;;;;;;;2.42;1.90;;;16.90;58.70;;;14.70;69.72;95701.53;5012949;28;20049;-67
2022/05/31 06:40:16;;;;;;;2.47;1.67;;;17.20;58.10;;;14.86;68.80;95699.31;5010663;28;20140;-67
2022/05/31 06:42:43;;;;;;;4.80;1.95;;;17.50;57.40;;;15.05;69.69;95708.00;4989972;28;20155;-67
2022/05/31 06:45:10;;;;;;;3.95;1.85;;;17.80;57.10;;;15.22;67.37;95698.38;5020334;28;20048;-66
2022/05/31 06:47:37;;;;;;;2.70;2.03;;;17.90;56.20;;;15.45;68.48;95708.22;4998791;28;20091;-67
2022/05/31 06:50:04;;;;;;;2.28;1.70;;;18.40;55.80;;;15.70;67.27;95703.53;4991212;28;20041;-67
2022/05/31 06:57:59;;;;;;;1.70;1.42;;;19.10;52.60;;;16.43;65.50;95695.00;5016307;28;20045;-67
2022/05/31 07:00:25;;;;;;;2.58;1.60;;;19.60;52.80;;;16.66;64.88;95694.16;4994007;28;20045;-67
2022/05/31 07:02:51;;;;;;;4.75;1.90;;;19.70;51.10;;;16.82;64.22;95687.28;4985116;28;20031;-67
2022/05/31 07:05:18;;;;;;;2.42;1.45;;;19.70;50.90;;;16.95;63.61;95686.19;4991016;28;20412;-67
2022/05/31 07:07:43;;;;;;;2.40;1.58;;;19.80;50.40;;;17.20;63.23;95680.50;4990545;28;20034;-67
2022/05/31 07:10:10;;;;;;;2.65;1.90;;;20.30;51.00;;;17.48;63.14;95687.63;4993944;28;20123;-67
2022/05/31 07:12:36;;;;;;;2.25;1.50;;;20.60;49.90;;;17.74;62.19;95695.78;4995557;28;20040;-67
2022/05/31 07:15:01;;;;;;;2.75;1.70;;;21.00;48.30;;;18.01;61.24;95689.75;4994356;28;20030;-67
2022/05/31 07:17:28;;;;;;;2.60;1.77;;;21.10;47.30;;;18.27;59.84;95689.03;4994457;28;20222;-67
2022/05/31 07:19:54;;;;;;;2.42;1.52;;;21.30;46.60;;;18.45;60.00;95689.78;5013752;28;20045;-67
2022/05/31 07:22:20;;;;;;;3.95;1.73;;;21.50;47.20;;;18.66;57.45;95686.34;5013850;28;20041;-67
2022/05/31 07:24:46;;;;;;;1.88;1.50;;;21.50;46.20;;;18.82;57.03;95684.66;5023540;28;20409;-67
2022/05/31 07:27:12;;;;;;;2.58;1.20;;;21.80;45.90;;;18.92;56.78;95679.41;5013650;28;20068;-67
2022/05/31 07:29:39;;;;;;;2.47;1.38;;;21.70;44.50;;;19.11;56.17;95678.00;5012869;28;20453;-67
2022/05/31 07:32:05;;;;;;;4.13;1.60;;;22.20;43.80;;;19.43;56.68;95674.53;5008880;28;20484;-67
2022/05/31 07:34:31;;;;;;;3.33;1.52;;;22.70;44.50;;;19.74;54.52;95668.41;5012777;28;20513;-67
2022/05/31 07:36:57;;;;;;;2.42;1.60;;;23.00;43.70;;;20.04;55.04;95665.13;5030326;28;20120;-67
2022/05/31 07:39:23;;;;;;;4.20;1.60;;;23.30;43.00;;;20.33;53.78;95667.38;4996502;28;20037;-67
2022/05/31 07:41:49;;;;;;;1.40;1.10;;;23.50;42.90;;;20.66;53.22;95667.03;5030171;28;20562;-67
2022/05/31 07:44:16;;;;;;;2.30;1.40;;;24.00;41.00;;;20.80;51.81;95670.78;5013476;28;20025;-69
2022/05/31 07:46:41;;;;;;;2.00;1.20;;;23.80;39.10;;;21.00;50.62;95666.56;5008058;28;20136;-67
2022/05/31 07:49:07;;;;;;;1.80;1.30;;;24.10;39.00;;;21.15;50.24;95661.22;4993298;28;20056;-67
2022/05/31 07:51:33;;;;;;;1.65;1.00;;;24.30;38.70;;;21.42;48.98;95662.88;5029246;28;20116;-67
2022/05/31 07:53:59;;;;;;;4.95;1.60;;;24.60;38.70;;;21.50;48.56;95663.16;5013309;28;20541;-67
2022/05/31 07:56:26;;;;;;;3.00;1.48;;;24.50;38.30;;;21.77;48.67;95659.38;5009874;28;20487;-67
2022/05/31 07:58:52;;;;;;;2.25;1.48;;;24.80;38.60;;;22.04;48.20;95659.91;4990109;28;20026;-67
2022/05/31 08:01:22;;;;;;;2.53;1.30;;;25.10;38.90;;;22.31;47.07;95656.88;4997730;28;20065;-67
2022/05/31 08:03:49;;;;;;;5.32;1.55;;;25.40;38.80;;;22.55;47.26;95665.88;4997310;28;20048;-66
2022/05/31 08:06:21;;;;;;;3.30;1.20;;;25.60;37.00;;;22.73;45.29;95656.41;5002816;28;20091;-67
2022/05/31 08:08:47;;;;;;;2.80;1.25;;;25.70;37.60;;;22.86;46.50;95655.84;4982015;28;20044;-67
2022/05/31 08:11:19;;;;;;;11.98;2.35;;;26.10;37.40;;;23.00;45.61;95666.75;4999319;28;20026;-67
2022/05/31 08:13:45;;;;;;;6.68;2.03;;;26.10;37.40;;;23.19;46.19;95670.38;4973019;28;20033;-67
2022/05/31 08:16:14;;;;;;;3.03;1.20;;;26.60;37.70;;;23.41;44.68;95666.47;4980991;28;20029;-67
2022/05/31 08:18:40;;;;;;;2.13;1.02;;;26.70;34.80;;;23.60;44.59;95658.56;4996520;28;20114;-67
2022/05/31 08:21:08;;;;;;;2.60;1.25;;;27.00;34.00;;;23.69;43.71;95648.81;4997176;28;20116;-67
2022/05/31 08:23:35;;;;;;;1.65;1.05;;;27.10;34.20;;;23.96;44.20;95632.94;4965407;28;20109;-68
2022/05/31 08:26:02;;;;;;;2.05;1.05;;;27.50;35.20;;;24.26;43.53;95645.28;5006416;28;20523;-67
2022/05/31 08:28:28;;;;;;;2.13;0.95;;;27.70;33.50;;;24.56;42.21;95641.44;4992100;28;20037;-67
2022/05/31 08:30:57;;;;;;;2.78;1.00;;;28.10;33.10;;;24.77;41.19;95639.28;5006450;28;20061;-67
2022/05/31 08:33:24;;;;;;;1.25;0.80;;;28.00;32.30;;;24.88;41.69;95635.34;4996476;28;20034;-67
2022/05/31 08:35:51;;;;;;;2.33;1.05;;;28.00;33.10;;;25.08;40.94;95628.09;5029934;28;20124;-68
2022/05/31 08:38:17;;;;;;;2.53;1.00;;;28.10;32.00;;;25.21;40.69;95622.00;5013534;28;20043;-68
2022/05/31 08:41:06;;;;;;;2.83;1.40;;;28.30;32.90;;;25.44;38.37;95618.38;5007156;28;20034;-68
2022/05/31 08:43:45;;;;;;;4.78;1.00;;;28.60;32.60;;;25.53;38.28;95623.88;5013126;28;20044;-67
2022/05/31 08:47:17;;;;;;;2.17;1.13;;;28.50;32.30;;;25.63;37.17;95621.84;5030135;28;20040;-67
2022/05/31 08:53:22;;;;;;;2.03;1.00;;;28.60;31.50;;;25.87;38.47;95612.81;5028872;28;20053;-67
2022/05/31 08:59:20;;;;;;;3.33;1.33;;;28.90;32.10;;;26.17;36.60;95606.84;5009194;28;20196;-67
2022/05/31 09:02:01;;;;;;;4.03;1.33;;;28.80;31.60;;;26.02;37.51;95609.81;5011925;28;20120;-67
2022/05/31 09:04:35;;;;;;;3.55;1.00;;;28.50;33.10;;;25.93;38.77;95606.25;5005655;28;20046;-67
2022/05/31 09:07:08;;;;;;;2.47;1.30;;;28.70;33.70;;;26.17;38.24;95606.84;5009436;28;20089;-67
2022/05/31 09:10:08;;;;;;;3.38;1.02;;;29.10;32.90;;;26.38;36.79;95609.16;4995194;28;20483;-68
2022/05/31 09:12:52;;;;;;;3.47;1.08;;;29.30;31.80;;;26.30;36.34;95609.84;5014530;28;20100;-67
2022/05/31 09:15:57;;;;;;;2.97;0.95;;;29.10;30.90;;;26.33;35.35;95606.56;4976030;28;20041;-67
2022/05/31 09:18:50;;;;;;;3.72;1.00;;;29.20;29.70;;;26.31;35.89;95596.06;5027553;28;20526;-67
2022/05/31 09:21:37;;;;;;;3.25;1.30;;;29.40;30.10;;;26.39;35.34;95598.06;5011035;28;20033;-68
2022/05/31 09:24:12;;;;;;;2.30;1.00;;;29.40;29.90;;;26.48;35.46;95598.16;5013740;28;20460;-67
2022/05/31 09:27:09;;;;;;;2.70;0.90;;;29.50;30.10;;;26.53;35.49;95592.69;5007658;28;20037;-67
2022/05/31 09:29:44;;;;;;;3.58;1.25;;;29.70;30.20;;;26.57;36.16;95596.34;5001252;28;20537;-68
2022/05/31 09:32:37;;;;;;;1.65;0.93;;;29.60;28.50;;;26.70;33.58;95581.22;5027656;28;20041;-68
2022/05/31 09:35:19;;;;;;;1.55;0.80;;;29.80;28.30;;;26.83;35.24;95581.19;5009804;28;20068;-68
2022/05/31 09:37:58;;;;;;;1.75;0.90;;;30.10;29.90;;;27.03;35.37;95585.38;4987761;28;20050;-67
2022/05/31 09:40:43;;;;;;;1.80;0.88;;;30.60;29.90;;;27.25;34.61;95581.88;4996868;28;20034;-68
2022/05/31 09:43:43;;;;;;;1.80;0.90;;;31.00;28.40;;;27.39;34.04;95574.50;4999099;28;20140;-67
2022/05/31 09:46:10;;;;;;;1.50;0.80;;;31.00;28.50;;;27.52;34.65;95580.13;5008093;28;20080;-68
2022/05/31 09:48:50;;;;;;;1.42;0.80;;;30.90;28.10;;;27.68;33.62;95579.47;5027474;28;20033;-67
2022/05/31 09:51:34;;;;;;;1.92;0.90;;;31.30;27.50;;;27.84;32.84;95571.75;4986435;28;20507;-67
2022/05/31 09:59:29;;;;;;;2.72;0.98;;;32.30;29.30;;;28.41;34.47;95574.50;5027113;28;20294;-67
2022/05/31 10:01:55;;;;;;;2.33;0.90;;;32.40;26.60;;;28.60;34.34;95577.72;5010375;28;20030;-67
2022/05/31 10:04:29;;;;;;;1.80;0.80;;;32.60;25.70;;;28.83;33.53;95572.19;5005428;28;20595;-67
2022/05/31 10:07:03;;;;;;;2.63;0.80;;;33.00;26.80;;;29.19;34.10;95567.25;5008539;28;20052;-67
2022/05/31 10:09:49;;;;;;;1.95;0.68;;;33.40;25.90;;;29.70;32.08;95571.03;5010185;28;20064;-67
2022/05/31 10:12:29;;;;;;;1.50;0.80;;;34.00;26.00;;;30.06;31.14;95567.88;5027058;28;20041;-67
2022/05/31 10:14:55;;;;;;;2.60;0.98;;;34.30;25.20;;;30.39;32.47;95570.75;5011636;28;20108;-67
2022/05/31 10:17:37;;;;;;;2.20;1.00;;;34.50;25.30;;;30.67;31.10;95548.56;5010603;28;20168;-68
2022/05/31 10:20:19;;;;;;;4.38;1.08;;;35.00;24.20;;;30.95;29.43;95540.66;5005489;28;20053;-67
2022/05/31 10:22:50;;;;;;;3.60;0.70;;;35.20;22.80;;;31.18;30.22;95547.38;5016987;28;20038;-67
2022/05/31 10:25:38;;;;;;;3.35;0.75;;;35.20;23.50;;;31.59;28.94;95541.03;5024155;28;20038;-68
2022/05/31 10:28:24;;;;;;;1.63;0.80;;;35.60;22.60;;;31.96;28.78;95533.75;5027085;28;20048;-67
2022/05/31 10:31:03;;;;;;;2.08;0.77;;;36.30;23.20;;;32.35;27.94;95538.88;5016325;28;20348;-68
2022/05/31 10:33:29;;;;;;;2.45;1.00;;;36.70;22.70;;;32.57;30.00;95531.00;5015822;28;20044;-68
2022/05/31 10:36:16;;;;;;;1.65;0.70;;;36.60;20.20;;;32.76;26.71;95527.69;4979029;28;20026;-67
2022/05/31 10:38:45;;;;;;;1.65;1.00;;;36.80;19.90;;;33.03;27.42;95514.44;4997776;28;20178;-66
2022/05/31 10:41:32;;;;;;;3.42;1.10;;;37.20;20.60;;;33.39;25.75;95511.59;5014467;28;20030;-66
2022/05/31 10:44:10;;;;;;;1.75;0.88;;;37.20;20.50;;;33.63;26.29;95518.84;5030963;28;20033;-66
2022/05/31 10:46:37;;;;;;;1.05;0.65;;;37.50;20.30;;;33.85;26.94;95514.72;5031990;28;20029;-67
2022/05/31 10:49:16;;;;;;;1.60;0.60;;;37.60;19.70;;;34.02;25.12;95522.56;5010735;28;20121;-67
2022/05/31 10:52:07;;;;;;;;;;;37.70;20.10;;;34.26;24.23;95516.13;5004109;28;20044;-67
2022/05/31 10:54:38;;;;;;;1.40;0.65;;;37.90;19.20;;;34.46;25.90;95514.25;5031929;28;19959;-67
2022/05/31 10:57:18;;;;;;;2.58;0.80;;;37.70;19.90;;;34.69;25.41;95519.81;5032210;28;20034;-67
2022/05/31 11:00:03;;;;;;;1.67;0.90;;;37.80;21.20;;;34.88;24.25;95519.09;5011461;28;20091;-67